createdAt,value
2023-01-15T00:04:42.212Z,5.10
2023-01-15T00:09:43.995Z,5.00
2023-01-15T00:14:46.163Z,4.90
2023-01-15T00:19:47.934Z,4.90
2023-01-15T00:25:08.677Z,4.90
2023-01-15T00:30:13.071Z,5.10
2023-01-15T00:35:21.652Z,5.00
2023-01-15T00:40:23.303Z,5.00
2023-01-15T00:45:25.093Z,5.10
2023-01-15T00:50:26.915Z,5.00
2023-01-15T00:55:28.671Z,5.00
2023-01-15T01:00:30.499Z,5.00
2023-01-15T01:05:32.791Z,5.10
2023-01-15T01:10:34.703Z,5.10
2023-01-15T01:15:37.882Z,4.90
2023-01-15T01:20:39.647Z,4.90
2023-01-15T01:25:41.374Z,4.90
2023-01-15T01:30:43.130Z,4.90
2023-01-15T01:35:49.971Z,5.00
2023-01-15T01:40:51.823Z,4.90
2023-01-15T01:45:53.678Z,5.00
2023-01-15T01:50:57.870Z,5.00
2023-01-15T01:56:00.632Z,5.00
2023-01-15T02:01:03.062Z,5.00
2023-01-15T02:06:08.802Z,5.10
2023-01-15T02:11:16.516Z,5.10
2023-01-15T02:16:44.316Z,5.10
2023-01-15T02:22:28.922Z,5.10
2023-01-15T02:27:31.252Z,5.20
2023-01-15T02:32:51.596Z,5.20
2023-01-15T02:37:57.674Z,5.20
2023-01-15T02:42:59.640Z,5.30
2023-01-15T02:48:07.479Z,5.30
2023-01-15T02:53:14.576Z,5.30
2023-01-15T02:58:29.001Z,5.40
2023-01-15T03:03:37.873Z,5.30
2023-01-15T03:08:39.776Z,5.30
2023-01-15T03:14:14.998Z,5.30
2023-01-15T03:19:25.848Z,5.20
2023-01-15T03:24:33.467Z,5.30
2023-01-15T03:29:41.609Z,5.30
2023-01-15T03:34:50.490Z,5.40
2023-01-15T03:39:53.067Z,5.30
2023-01-15T03:45:16.704Z,5.30
2023-01-15T03:50:38.769Z,5.40
2023-01-15T03:55:59.711Z,5.40
2023-01-15T04:01:04.173Z,5.50
2023-01-15T04:06:07.825Z,5.50
2023-01-15T04:11:09.596Z,5.50
2023-01-15T04:16:11.480Z,5.50
2023-01-15T04:21:13.209Z,5.60
2023-01-15T04:26:15.228Z,5.50
2023-01-15T04:31:16.995Z,5.30
2023-01-15T04:36:19.063Z,5.30
2023-01-15T04:41:39.814Z,5.20
2023-01-15T04:46:46.143Z,5.20
2023-01-15T04:51:47.940Z,5.00
2023-01-15T04:56:52.583Z,4.90
2023-01-15T05:02:03.804Z,4.80
2023-01-15T05:07:07.064Z,4.70
2023-01-15T05:12:10.494Z,4.70
2023-01-15T05:17:12.368Z,4.60
2023-01-15T05:22:14.107Z,4.70
2023-01-15T05:27:15.867Z,4.60
2023-01-15T05:32:17.698Z,4.50
2023-01-15T05:37:19.479Z,4.50
2023-01-15T05:42:21.215Z,4.50
2023-01-15T05:47:22.949Z,4.60
2023-01-15T05:52:24.650Z,4.60
2023-01-15T05:57:26.356Z,4.60
2023-01-15T06:02:28.250Z,4.50
2023-01-15T06:07:30.015Z,4.60
2023-01-15T06:12:33.080Z,4.50
2023-01-15T06:17:34.855Z,4.50
2023-01-15T06:22:38.890Z,4.50
2023-01-15T06:27:40.645Z,4.50
2023-01-15T06:32:42.369Z,4.50
2023-01-15T06:37:44.088Z,4.40
2023-01-15T06:43:21.097Z,4.50
2023-01-15T06:48:26.604Z,4.60
2023-01-15T06:53:28.423Z,4.50
2023-01-15T06:58:30.212Z,4.40
2023-01-15T07:03:32.000Z,4.40
2023-01-15T07:08:34.145Z,4.40
2023-01-15T07:13:36.589Z,4.40
2023-01-15T07:18:38.363Z,4.40
2023-01-15T07:23:40.086Z,4.30
2023-01-15T07:28:42.048Z,4.30
2023-01-15T07:33:43.798Z,4.20
2023-01-15T07:38:45.556Z,4.20
2023-01-15T07:44:05.838Z,4.20
2023-01-15T07:49:32.414Z,4.20
2023-01-15T07:54:34.133Z,4.30
2023-01-15T07:59:35.918Z,4.30
2023-01-15T08:04:37.839Z,4.40
2023-01-15T08:09:39.762Z,4.30
2023-01-15T08:15:00.047Z,4.30
2023-01-15T08:20:03.933Z,4.40
2023-01-15T08:25:06.751Z,4.40
2023-01-15T08:30:13.652Z,4.40
2023-01-15T08:35:15.556Z,4.50
2023-01-15T08:40:17.596Z,4.40
2023-01-15T08:45:19.327Z,4.40
2023-01-15T08:50:21.056Z,4.40
2023-01-15T08:55:22.886Z,4.40
2023-01-15T09:00:25.114Z,4.40
2023-01-15T09:05:28.189Z,4.50
2023-01-15T09:10:29.901Z,4.40
2023-01-15T09:15:33.595Z,4.40
2023-01-15T09:20:35.349Z,4.40
2023-01-15T09:25:37.241Z,4.30
2023-01-15T09:30:39.015Z,4.30
2023-01-15T09:35:42.587Z,4.30
2023-01-15T09:40:55.381Z,4.30
2023-01-15T09:46:05.071Z,4.20
2023-01-15T09:51:18.573Z,4.20
2023-01-15T09:56:27.883Z,4.10
2023-01-15T10:01:31.608Z,4.10
2023-01-15T10:06:42.026Z,4.10
2023-01-15T10:12:16.700Z,4.00
2023-01-15T10:17:22.665Z,4.00
2023-01-15T10:22:52.246Z,4.00
2023-01-15T10:27:56.319Z,4.00
2023-01-15T10:33:05.714Z,3.90
2023-01-15T10:38:43.529Z,3.90
2023-01-15T10:43:57.657Z,3.90
2023-01-15T10:49:13.617Z,3.80
2023-01-15T10:54:24.578Z,3.80
2023-01-15T10:59:40.965Z,3.70
2023-01-15T11:04:45.578Z,3.70
2023-01-15T11:09:48.257Z,3.70
2023-01-15T11:15:08.551Z,3.70
2023-01-15T11:20:42.709Z,3.60
2023-01-15T11:25:54.130Z,3.60
2023-01-15T11:30:55.961Z,3.60
2023-01-15T11:36:06.422Z,3.50
2023-01-15T11:41:19.432Z,3.50
2023-01-15T11:46:45.663Z,3.50
2023-01-15T11:51:49.395Z,3.40
2023-01-15T11:56:51.434Z,3.40
2023-01-15T12:02:04.390Z,3.40
2023-01-15T12:07:11.880Z,3.30
2023-01-15T12:12:22.637Z,3.30
2023-01-15T12:17:30.914Z,3.30
2023-01-15T12:22:35.756Z,3.20
2023-01-15T12:27:52.190Z,3.20
2023-01-15T12:33:19.756Z,3.10
2023-01-15T12:38:40.963Z,3.10
2023-01-15T12:44:08.439Z,3.10
2023-01-15T12:49:35.568Z,3.10
2023-01-15T12:54:47.410Z,3.00
2023-01-15T12:59:56.924Z,3.00
2023-01-15T13:05:39.544Z,3.10
2023-01-15T13:10:41.929Z,3.00
2023-01-15T13:15:55.759Z,2.90
2023-01-15T13:21:00.569Z,3.00
2023-01-15T13:26:35.868Z,3.00
2023-01-15T13:31:52.861Z,2.90
2023-01-15T13:36:59.709Z,3.00
2023-01-15T13:42:22.771Z,3.00
2023-01-15T13:47:28.783Z,3.00
2023-01-15T13:52:36.209Z,3.00
2023-01-15T13:57:41.107Z,3.10
2023-01-15T14:02:53.778Z,3.00
2023-01-15T14:07:55.688Z,3.00
2023-01-15T14:13:18.575Z,3.00
2023-01-15T14:18:42.548Z,3.00
2023-01-15T14:23:52.894Z,3.00
2023-01-15T14:29:22.330Z,3.00
2023-01-15T14:34:30.391Z,3.00
2023-01-15T14:39:52.228Z,3.00
2023-01-15T14:45:06.180Z,3.00
2023-01-15T14:50:38.683Z,3.10
2023-01-15T14:55:53.414Z,3.10
2023-01-15T15:00:59.314Z,3.10
2023-01-15T15:06:01.711Z,3.10
2023-01-15T15:11:26.150Z,3.10
2023-01-15T15:16:29.781Z,3.20
2023-01-15T15:21:41.839Z,3.20
2023-01-15T15:26:43.776Z,3.20
2023-01-15T15:31:49.366Z,3.30
2023-01-15T15:36:51.254Z,3.30
2023-01-15T15:42:14.308Z,3.30
2023-01-15T15:47:37.895Z,3.30
2023-01-15T15:52:44.389Z,3.40
2023-01-15T15:58:00.660Z,3.50
2023-01-15T16:03:07.676Z,3.50
2023-01-15T16:08:20.562Z,3.50
2023-01-15T16:13:29.770Z,3.50
2023-01-15T16:18:33.494Z,3.70
2023-01-15T16:23:35.369Z,3.60
2023-01-15T16:28:43.746Z,3.70
2023-01-15T16:33:46.821Z,3.80
2023-01-15T16:38:50.708Z,3.80
2023-01-15T16:43:56.555Z,3.80
2023-01-15T16:49:36.754Z,3.90
2023-01-15T16:54:38.498Z,3.90
2023-01-15T16:59:46.039Z,3.90
2023-01-15T17:04:48.651Z,3.80
2023-01-15T17:09:53.596Z,3.90
2023-01-15T17:14:58.358Z,3.90
2023-01-15T17:20:00.111Z,3.90
2023-01-15T17:25:02.286Z,3.90
2023-01-15T17:30:04.447Z,4.10
2023-01-15T17:35:07.388Z,4.10
2023-01-15T17:40:09.743Z,4.10
2023-01-15T17:45:25.982Z,4.20
2023-01-15T17:50:28.561Z,4.20
2023-01-15T17:55:49.150Z,4.20
2023-01-15T18:01:11.543Z,4.20
2023-01-15T18:06:15.308Z,4.30
2023-01-15T18:11:17.039Z,4.30
2023-01-15T18:16:19.299Z,4.40
2023-01-15T18:21:21.593Z,4.40
2023-01-15T18:26:23.411Z,4.40
2023-01-15T18:31:25.177Z,4.40
2023-01-15T18:36:26.965Z,4.40
2023-01-15T18:41:49.185Z,4.40
2023-01-15T18:46:54.393Z,4.50
2023-01-15T18:52:14.591Z,4.50
2023-01-15T18:57:16.708Z,4.50
2023-01-15T19:02:20.676Z,4.50
2023-01-15T19:07:22.527Z,4.60
2023-01-15T19:12:24.307Z,4.60
2023-01-15T19:17:45.022Z,4.60
2023-01-15T19:22:59.144Z,4.70
2023-01-15T19:28:01.181Z,4.70
2023-01-15T19:33:03.238Z,4.60
2023-01-15T19:38:08.303Z,4.60
2023-01-15T19:43:29.937Z,4.70
2023-01-15T19:48:52.457Z,4.70
2023-01-15T19:53:54.264Z,4.70
2023-01-15T19:58:56.056Z,4.70
2023-01-15T20:03:57.796Z,4.80
2023-01-15T20:08:59.461Z,4.80
2023-01-15T20:14:01.463Z,4.70
2023-01-15T20:19:04.566Z,4.70
2023-01-15T20:24:06.975Z,4.70
2023-01-15T20:29:08.809Z,4.70
2023-01-15T20:34:10.536Z,4.70
2023-01-15T20:39:12.355Z,4.70
2023-01-15T20:44:32.572Z,4.70
2023-01-15T20:49:35.062Z,4.60
2023-01-15T20:54:37.878Z,4.70
2023-01-15T20:59:39.584Z,4.60
2023-01-15T21:04:41.295Z,4.70
2023-01-15T21:09:43.025Z,4.60
2023-01-15T21:14:44.813Z,4.60
2023-01-15T21:19:46.534Z,4.60
2023-01-15T21:24:50.073Z,4.60
2023-01-15T21:29:53.646Z,4.60
2023-01-15T21:34:55.370Z,4.60
2023-01-15T21:39:57.139Z,4.60
2023-01-15T21:44:58.882Z,4.60
2023-01-15T21:50:00.580Z,4.60
2023-01-15T21:55:02.328Z,4.50
2023-01-15T22:00:04.560Z,4.50
2023-01-15T22:05:08.350Z,4.40
2023-01-15T22:10:10.855Z,4.40
2023-01-15T22:15:12.652Z,4.40
2023-01-15T22:20:14.506Z,4.40
2023-01-15T22:25:16.477Z,4.40
2023-01-15T22:30:18.371Z,4.40
2023-01-15T22:35:20.284Z,4.40
2023-01-15T22:40:22.113Z,4.40
2023-01-15T22:45:24.958Z,4.40
2023-01-15T22:50:26.646Z,4.40
2023-01-15T22:55:28.364Z,4.40
2023-01-15T23:00:30.190Z,4.30
2023-01-15T23:05:39.430Z,4.30
2023-01-15T23:10:46.238Z,4.30
2023-01-15T23:15:57.271Z,4.30
2023-01-15T23:21:04.117Z,4.30
2023-01-15T23:26:17.530Z,4.30
2023-01-15T23:31:20.686Z,4.20
2023-01-15T23:36:22.721Z,4.20
2023-01-15T23:41:43.983Z,4.10
2023-01-15T23:46:45.931Z,4.00
2023-01-15T23:51:47.659Z,4.00
2023-01-15T23:56:49.586Z,4.10
